Time;durP1;ratioP1;P1;durP2;ratioP2;P2;SDS_P1;SDS_P2;PMS_P1;PMS_P2;Temp;Humidity;BMP_temperature;BMP_pressure;BME280_temperature;BME280_humidity;BME280_pressure;Samples;Min_cycle;Max_cycle;Signal;HPM_P1;HPM_P2
2023/08/22 00:02:08;;;;;;;15.23;9.05;;;;;;;-144.30;47.53;83691.19;5090452;28;20290;-56
2023/08/22 00:08:07;;;;;;;11.23;9.50;;;;;;;-144.30;48.15;83738.88;5086559;28;20607;-55
2023/08/22 00:11:06;;;;;;;11.07;9.05;;;;;;;-144.30;48.38;84285.34;5090809;28;20697;-55
2023/08/22 00:14:01;;;;;;;9.55;8.82;;;;;;;-144.30;48.72;83774.66;5090543;28;20202;-54
2023/08/22 00:17:00;;;;;;;10.38;8.85;;;;;;;-144.30;48.83;83764.72;5090116;28;20195;-54
2023/08/22 00:20:03;;;;;;;9.48;8.73;;;;;;;-144.30;48.88;83824.31;5088688;28;20203;-54
2023/08/22 00:22:57;;;;;;;10.43;9.25;;;;;;;-144.30;48.81;83796.50;5089156;28;20222;-45
2023/08/22 00:26:06;;;;;;;12.95;9.57;;;;;;;-144.30;49.17;83790.56;5090149;28;20195;-46
2023/08/22 00:29:06;;;;;;;12.15;9.52;;;;;;;-144.30;49.49;83838.25;5089447;28;20298;-45
2023/08/22 00:32:16;;;;;;;11.40;10.13;;;;;;;-144.30;49.66;83846.19;5090264;28;20191;-44
2023/08/22 00:35:08;;;;;;;10.70;9.77;;;;;;;-144.30;50.00;83838.25;5085798;28;20278;-45
2023/08/22 00:38:20;;;;;;;10.18;9.18;;;;;;;-144.30;50.12;83854.13;5090185;28;20575;-45
2023/08/22 00:41:11;;;;;;;9.68;8.82;;;;;;;-144.30;50.39;83846.19;5089075;28;20202;-45
2023/08/22 00:44:09;;;;;;;10.45;9.52;;;;;;;-144.30;50.70;83885.94;5089734;28;20985;-45
2023/08/22 00:56:52;;;;;;;;;;;;;;;;;;;;;
2023/08/22 00:59:53;;;;;;;10.38;9.57;;;;;;;-144.30;51.28;83911.75;5088777;28;20699;-57
2023/08/22 01:05:57;;;;;;;10.27;9.48;;;;;;;-144.30;51.64;83883.94;5089598;28;20578;-56
2023/08/22 01:09:08;;;;;;;10.25;9.13;;;;;;;-144.30;51.32;83877.97;5087353;28;20691;-45
2023/08/22 01:12:34;;;;;;;9.93;8.70;;;;;;;-144.30;51.36;83937.59;5088399;28;20195;-46
2023/08/22 01:15:24;;;;;;;11.88;9.43;;;;;;;-144.30;51.23;83959.44;5086111;28;20199;-44
2023/08/22 01:22:05;;;;;;;10.43;9.40;;;;;;;-144.30;50.97;83937.59;5086974;28;20714;-46
2023/08/22 01:28:06;;;;;;;13.05;11.80;;;;;;;-144.30;51.30;83921.69;5088717;28;20647;-55
2023/08/22 01:31:23;;;;;;;;;;;;;;;;;;;;;
2023/08/22 01:34:28;;;;;;;12.43;11.32;;;;;;;-144.30;51.67;84015.09;5085717;28;20591;-55
2023/08/22 01:37:17;;;;;;;10.63;9.73;;;;;;;-144.30;51.95;83981.31;5086234;28;20660;-46
2023/08/22 01:40:17;;;;;;;13.98;10.88;;;;;;;-144.30;52.16;83989.25;5086626;28;20207;-55
2023/08/22 01:43:14;;;;;;;14.50;12.75;;;;;;;-144.30;52.56;84009.13;5086484;28;20229;-54
2023/08/22 01:55:11;;;;;;;10.63;9.63;;;;;;;-144.30;52.97;84015.09;5089025;28;20271;-46
2023/08/22 01:58:15;;;;;;;10.75;9.70;;;;;;;-144.30;53.08;84001.19;5085156;28;20191;-45
2023/08/22 02:04:06;;;;;;;10.30;9.40;;;;;;;-144.30;53.27;84005.16;5047266;28;20719;-46
2023/08/22 02:07:09;;;;;;;10.35;9.45;;;;;;;-144.30;53.35;84354.91;5048121;28;20200;-47
2023/08/22 02:16:31;;;;;;;10.55;9.15;;;;;;;-144.30;53.18;84029.00;5048169;28;20283;-55
2023/08/22 02:20:05;;;;;;;13.65;12.20;;;;;;;-144.30;53.25;83985.28;5046843;28;20236;-55
2023/08/22 02:26:19;;;;;;;;;;;;;;;;;;;;;
2023/08/22 02:35:55;;;;;;;10.38;9.48;;;;;;;-144.30;53.31;83989.25;5050884;28;20205;-46
2023/08/22 02:39:08;;;;;;;10.38;9.27;;;;;;;-144.30;52.93;84032.97;5051718;28;20753;-55
2023/08/22 02:41:48;;;;;;;9.70;8.88;;;;;;;-144.30;52.94;84046.88;5052350;28;20204;-56
2023/08/22 02:44:31;;;;;;;10.15;8.82;;;;;;;-144.30;52.95;84066.75;5067268;28;20234;-46
2023/08/22 02:47:04;;;;;;;9.82;8.95;;;;;;;-144.30;52.77;84056.81;5063894;28;20680;-56
2023/08/22 02:49:49;;;;;;;9.40;8.77;;;;;;;-144.30;53.03;84048.88;5060377;28;20204;-46
2023/08/22 02:52:41;;;;;;;11.43;9.48;;;;;;;-144.30;53.14;84062.78;5055257;28;20277;-46
2023/08/22 02:55:20;;;;;;;10.30;8.80;;;;;;;-144.30;53.53;84068.75;5062780;28;20236;-44
2023/08/22 02:58:03;;;;;;;9.80;8.82;;;;;;;-144.30;53.56;84060.78;5068757;28;20660;-55
2023/08/22 03:00:40;;;;;;;9.82;9.10;;;;;;;-144.30;53.36;84036.94;5071566;28;20688;-45
2023/08/22 03:03:19;;;;;;;10.32;9.32;;;;;;;-144.30;53.37;84064.78;5097463;28;20235;-45
2023/08/22 03:06:05;;;;;;;9.73;8.98;;;;;;;-144.30;53.37;84052.84;5091800;28;20231;-56
2023/08/22 03:08:50;;;;;;;9.38;8.73;;;;;;;-144.30;53.46;84036.94;5091256;28;20195;-55
2023/08/22 03:11:25;;;;;;;9.70;8.80;;;;;;;-144.30;53.57;84086.63;5092022;28;20661;-56
2023/08/22 03:13:56;;;;;;;9.90;8.95;;;;;;;-144.30;53.89;84088.63;5107807;28;20237;-56
2023/08/22 03:16:24;;;;;;;10.05;9.05;;;;;;;-144.30;53.75;84080.66;5097965;28;20207;-46
2023/08/22 03:19:01;;;;;;;9.52;8.73;;;;;;;-144.30;53.68;84104.50;5095976;28;20239;-46
2023/08/22 03:21:29;;;;;;;10.73;8.98;;;;;;;-144.30;53.76;84052.84;5096139;28;20244;-55
2023/08/22 03:23:59;;;;;;;9.70;8.75;;;;;;;-144.30;53.82;84064.78;5099329;28;20254;-55
2023/08/22 03:26:30;;;;;;;10.90;9.80;;;;;;;-144.30;53.88;84058.81;5095809;28;20279;-56
2023/08/22 03:29:07;;;;;;;9.65;8.88;;;;;;;-144.30;53.92;84048.88;5096289;28;20289;-46
2023/08/22 03:31:59;;;;;;;9.57;8.85;;;;;;;-144.30;54.05;84056.81;5095394;28;20267;-46
2023/08/22 03:34:39;;;;;;;9.45;8.80;;;;;;;-144.30;54.06;84072.72;5092871;28;20217;-56
2023/08/22 03:37:09;;;;;;;10.00;9.20;;;;;;;-144.30;54.30;84040.91;5104128;28;20197;-55
2023/08/22 03:39:47;;;;;;;12.50;10.43;;;;;;;-144.30;54.42;84052.84;5102174;28;20197;-45
2023/08/22 03:42:25;;;;;;;10.50;9.38;;;;;;;-144.30;54.68;84056.81;5099591;28;20195;-55
2023/08/22 03:45:08;;;;;;;10.85;9.63;;;;;;;-144.30;55.01;84076.69;5105515;28;20234;-55
2023/08/22 03:48:04;;;;;;;11.10;9.77;;;;;;;-144.30;55.19;84086.63;5102131;28;20285;-55
2023/08/22 03:50:59;;;;;;;9.45;8.60;;;;;;;-144.30;55.51;84120.41;5090559;28;20580;-55
2023/08/22 03:54:01;;;;;;;10.60;9.18;;;;;;;-144.30;55.51;84096.56;5091089;28;20195;-55
2023/08/22 03:57:48;;;;;;;10.52;9.63;;;;;;;-144.30;55.40;84118.41;5090735;28;20670;-55
2023/08/22 04:00:28;;;;;;;9.75;9.00;;;;;;;-144.30;55.22;84086.63;5090924;28;20561;-55
2023/08/22 04:03:23;;;;;;;10.85;9.95;;;;;;;-144.30;54.95;84070.72;5090947;28;20238;-55
2023/08/22 04:06:29;;;;;;;;;;;;;;;;;;;;;
2023/08/22 04:12:27;;;;;;;12.75;10.13;;;;;;;-144.30;53.91;84068.75;5091074;28;20596;-46
2023/08/22 04:15:28;;;;;;;12.45;10.40;;;;;;;-144.30;53.43;83981.31;5089131;28;20706;-45
2023/08/22 04:18:11;;;;;;;10.75;9.50;;;;;;;-144.30;52.37;83957.47;5085999;28;20298;-55
2023/08/22 04:20:58;;;;;;;16.60;9.70;;;;;;;-144.30;50.94;83810.41;5090326;28;20659;-55
2023/08/22 04:23:38;;;;;;;11.15;9.18;;;;;;;-144.30;48.20;83679.28;5092103;28;20641;-56
2023/08/22 04:26:39;;;;;;;10.05;9.07;;;;;;;-144.30;46.07;83512.38;5108049;28;20761;-56
2023/08/22 04:32:19;;;;;;;13.82;9.13;;;;;;;-144.30;41.66;83122.97;5110681;28;20202;-47
2023/08/22 04:35:37;;;;;;;12.15;9.20;;;;;;;-144.30;39.94;82924.31;5109287;28;20195;-56
2023/08/22 04:41:14;;;;;;;10.93;9.02;;;;;;;-144.30;37.22;82550.88;5109285;28;20702;-56
2023/08/22 04:46:48;;;;;;;16.58;9.30;;;;;;;-144.30;34.98;82241.03;5097060;28;20195;-56
2023/08/22 04:49:17;;;;;;;17.23;9.48;;;;;;;-144.30;34.44;82155.63;5090177;28;20199;-47
2023/08/22 04:51:51;;;;;;;28.15;9.82;;;;;;;-144.30;33.80;82016.59;5090063;28;20772;-56
2023/08/22 04:54:20;;;;;;;19.48;9.07;;;;;;;-144.30;33.38;81925.25;5089878;28;20660;-47
2023/08/22 04:56:51;;;;;;;10.73;8.98;;;;;;;-144.30;33.14;81883.53;5089817;28;20195;-45
2023/08/22 04:59:22;;;;;;;15.23;9.38;;;;;;;-144.30;32.73;81688.94;5089883;28;20562;-47
2023/08/22 05:02:10;;;;;;;9.85;8.82;;;;;;;-144.30;32.09;81573.75;5089864;28;20239;-57
2023/08/22 05:08:18;;;;;;;15.35;9.52;;;;;;;-144.30;31.05;81291.78;5089399;28;20207;-56
2023/08/22 05:11:07;;;;;;;11.50;8.82;;;;;;;-144.30;30.31;81085.31;5086689;28;20667;-47
2023/08/22 05:13:49;;;;;;;18.05;8.63;;;;;;;-144.30;29.77;81031.69;5091288;28;20232;-45
2023/08/22 05:16:46;;;;;;;9.65;8.05;;;;;;;-144.30;29.53;80988.00;5097836;28;20202;-47
2023/08/22 05:19:26;;;;;;;9.40;8.32;;;;;;;-144.30;29.89;81097.22;5099019;28;20229;-47
2023/08/22 05:22:05;;;;;;;13.88;8.40;;;;;;;-144.30;29.84;81073.38;5100400;28;20190;-48
2023/08/22 05:24:38;;;;;;;14.70;8.20;;;;;;;-144.30;29.80;81053.53;5099906;28;20314;-55
2023/08/22 05:27:14;;;;;;;10.13;8.15;;;;;;;-144.30;29.30;80821.25;5099723;28;20286;-46
2023/08/22 05:29:53;;;;;;;8.98;8.07;;;;;;;-144.30;28.78;80743.81;5097219;28;20185;-47
2023/08/22 05:32:35;;;;;;;12.00;8.20;;;;;;;-144.30;28.51;80553.25;5097664;28;20281;-56
2023/08/22 05:35:03;;;;;;;8.88;8.10;;;;;;;-144.30;27.92;80378.56;5099575;28;20190;-56
2023/08/22 05:37:41;;;;;;;14.05;8.88;;;;;;;-144.30;27.61;80309.06;5098567;28;20622;-47
2023/08/22 05:40:23;;;;;;;10.52;9.18;;;;;;;-144.30;27.45;80295.19;5098484;28;20190;-46
2023/08/22 05:42:58;;;;;;;25.10;18.08;;;;;;;-144.30;27.40;80326.94;5096692;28;20198;-56
2023/08/22 05:45:31;;;;;;;8.93;8.02;;;;;;;-144.30;27.34;80275.34;5098719;28;20249;-46
2023/08/22 05:48:02;;;;;;;22.45;9.63;;;;;;;-144.30;27.00;80207.84;5097608;28;20195;-47
2023/08/22 05:50:32;;;;;;;13.25;9.48;;;;;;;-144.30;27.38;80255.47;5096833;28;20197;-46
2023/08/22 05:53:03;;;;;;;22.25;18.27;;;;;;;-144.30;27.19;80047.06;5098669;28;20194;-46
2023/08/22 05:55:32;;;;;;;11.02;9.90;;;;;;;-144.30;26.79;79937.91;5097878;28;20195;-47
2023/08/22 05:58:01;;;;;;;14.15;9.23;;;;;;;-144.30;26.77;79890.25;5099205;28;20197;-48
2023/08/22 06:00:31;;;;;;;12.10;10.90;;;;;;;-144.30;26.32;79927.97;5100085;28;20646;-48
2023/08/22 06:03:03;;;;;;;15.13;12.18;;;;;;;-144.30;26.21;79898.19;5097885;28;20226;-55
2023/08/22 06:05:34;;;;;;;10.00;8.95;;;;;;;-144.30;26.18;79699.72;5097375;28;20283;-57
2023/08/22 06:08:01;;;;;;;13.73;9.88;;;;;;;-144.30;25.97;79640.19;5099091;28;20194;-56
2023/08/22 06:10:37;;;;;;;13.60;12.50;;;;;;;-144.30;25.88;79592.56;5099510;28;20199;-56
2023/08/22 06:13:07;;;;;;;10.55;9.55;;;;;;;-144.30;25.83;79564.78;5099063;28;20186;-48
2023/08/22 06:15:37;;;;;;;12.68;8.35;;;;;;;-144.30;25.69;79437.78;5096772;28;20183;-56
2023/08/22 06:18:08;;;;;;;8.85;7.88;;;;;;;-144.30;25.16;79239.31;5098257;28;20298;-56
2023/08/22 06:20:46;;;;;;;12.40;8.82;;;;;;;-144.30;25.37;79394.09;5096978;28;20191;-48
2023/08/22 06:23:22;;;;;;;10.05;8.00;;;;;;;-144.30;25.48;79449.69;5099477;28;20290;-47
2023/08/22 06:25:58;;;;;;;9.70;8.20;;;;;;;-144.30;25.54;79445.69;5094513;28;20304;-46
2023/08/22 06:28:31;;;;;;;11.80;7.97;;;;;;;-144.30;25.55;79358.38;5088965;28;20197;-46
2023/08/22 06:31:05;;;;;;;16.50;8.85;;;;;;;-144.30;25.16;79294.88;5088973;28;20203;-46
2023/08/22 06:33:44;;;;;;;12.30;8.05;;;;;;;-144.30;25.24;79179.78;5094536;28;20233;-47
2023/08/22 06:36:14;;;;;;;7.93;7.10;;;;;;;-144.30;24.98;79159.94;5089077;28;20194;-56
2023/08/22 06:38:51;;;;;;;13.02;8.23;;;;;;;-144.30;24.86;78985.34;5088826;28;20205;-47
2023/08/22 06:41:27;;;;;;;10.30;8.27;;;;;;;-144.30;24.58;78755.16;5088207;28;20206;-46
2023/08/22 06:44:07;;;;;;;14.15;8.40;;;;;;;-144.30;24.54;78818.66;5096911;28;20191;-57
2023/08/22 06:46:40;;;;;;;11.80;8.68;;;;;;;-144.30;24.49;78945.66;5096866;28;20190;-47
2023/08/22 06:49:12;;;;;;;14.32;8.85;;;;;;;-144.30;24.45;79056.75;5098446;28;20269;-47
2023/08/22 06:51:46;;;;;;;9.32;8.48;;;;;;;-144.30;24.62;79189.72;5097252;28;20278;-46
2023/08/22 06:54:16;;;;;;;15.75;8.20;;;;;;;-144.30;24.39;78961.53;5097857;28;20190;-56
2023/08/22 06:56:54;;;;;;;8.63;7.28;;;;;;;-144.30;23.95;78723.41;5103571;28;20262;-56
2023/08/22 06:59:24;;;;;;;10.43;7.38;;;;;;;-144.30;23.82;78693.66;5109413;28;20627;-55
2023/08/22 07:01:52;;;;;;;9.85;7.13;;;;;;;-144.30;23.92;78691.69;5096953;28;20242;-57
2023/08/22 07:04:22;;;;;;;10.40;7.50;;;;;;;-144.30;23.88;78703.56;5102449;28;20245;-56
2023/08/22 07:06:53;;;;;;;13.20;7.90;;;;;;;-144.30;23.92;78511.13;5109276;28;20201;-56
2023/08/22 07:09:33;;;;;;;7.82;7.10;;;;;;;-144.30;23.50;78503.19;5111481;28;20242;-55
2023/08/22 07:12:07;;;;;;;11.30;7.30;;;;;;;-144.30;23.94;78687.72;5111961;28;20610;-55
2023/08/22 07:14:36;;;;;;;14.23;8.30;;;;;;;-144.30;23.84;78388.13;5112602;28;20285;-55
2023/08/22 07:17:07;;;;;;;8.60;7.95;;;;;;;-144.30;23.26;78148.09;5112552;28;20708;-56
2023/08/22 07:19:39;;;;;;;7.55;7.07;;;;;;;-144.30;23.53;78241.31;5112595;28;20580;-47
2023/08/22 07:22:11;;;;;;;9.23;8.27;;;;;;;-144.30;23.70;78294.88;5112660;28;20281;-46
2023/08/22 07:24:44;;;;;;;11.82;8.35;;;;;;;-144.30;23.75;78181.81;5112409;28;20216;-45
2023/08/22 07:27:17;;;;;;;15.93;9.30;;;;;;;-144.30;23.43;78100.47;5112500;28;20194;-56
2023/08/22 07:29:45;;;;;;;11.00;7.68;;;;;;;-144.30;23.16;77973.50;5112235;28;20194;-55
2023/08/22 07:32:15;;;;;;;10.40;7.53;;;;;;;-144.30;23.20;78025.09;5112557;28;20189;-55
2023/08/22 07:34:45;;;;;;;10.57;7.95;;;;;;;-144.30;23.34;77842.59;5112442;28;20194;-56
2023/08/22 07:37:19;;;;;;;10.52;9.00;;;;;;;-144.30;23.21;77755.31;5112212;28;20660;-55
2023/08/22 07:39:51;;;;;;;15.30;7.95;;;;;;;-144.30;22.99;77467.72;5112400;28;20613;-55
2023/08/22 07:42:27;;;;;;;12.40;7.82;;;;;;;-144.30;22.59;77130.56;5112698;28;20229;-55
2023/08/22 07:44:58;;;;;;;9.65;7.50;;;;;;;-144.30;22.56;76862.84;5112055;28;20209;-47
2023/08/22 07:47:25;;;;;;;12.88;7.70;;;;;;;-144.30;22.44;76745.84;5111990;28;20274;-47
2023/08/22 07:49:55;;;;;;;16.38;7.82;;;;;;;-144.30;22.27;76422.66;5112091;28;20304;-55
2023/08/22 07:52:30;;;;;;;11.57;8.90;;;;;;;-144.30;22.34;76498.00;5111905;28;20202;-47
2023/08/22 07:54:58;;;;;;;12.38;7.82;;;;;;;-144.30;22.64;76936.22;5111865;28;20216;-46
2023/08/22 07:57:29;;;;;;;11.45;7.57;;;;;;;-144.30;22.41;76914.41;5111917;28;20640;-56
2023/08/22 07:59:57;;;;;;;9.50;8.60;;;;;;;-144.30;22.55;77029.41;5111824;28;20204;-46
2023/08/22 08:02:31;;;;;;;18.83;8.75;;;;;;;-144.30;22.73;77194.03;5111062;28;20235;-56
2023/08/22 08:05:01;;;;;;;9.50;8.38;;;;;;;-144.30;22.75;77297.16;5111510;28;20221;-47
2023/08/22 08:07:30;;;;;;;13.75;9.05;;;;;;;-144.30;22.27;77364.59;5111787;28;20255;-46
2023/08/22 08:10:06;;;;;;;8.98;8.07;;;;;;;-144.30;22.40;77342.78;5111939;28;20640;-55
2023/08/22 08:12:40;;;;;;;8.95;8.10;;;;;;;-144.30;22.14;77414.16;5111360;28;20200;-46
2023/08/22 08:15:11;;;;;;;12.77;7.97;;;;;;;-144.30;21.98;76894.56;5111543;28;20584;-55
2023/08/22 08:17:41;;;;;;;9.27;8.38;;;;;;;-144.30;21.94;76605.06;5111483;28;20742;-47
2023/08/22 08:20:15;;;;;;;16.13;7.60;;;;;;;-144.30;21.66;76501.97;5111376;28;20234;-55
2023/08/22 08:22:48;;;;;;;7.43;6.70;;;;;;;-144.30;21.52;76688.34;5111548;28;20221;-47
2023/08/22 08:25:22;;;;;;;7.15;6.20;;;;;;;-144.30;21.42;76999.69;5111311;28;20275;-56
2023/08/22 08:27:54;;;;;;;8.48;6.00;;;;;;;-144.30;21.74;77213.84;5111411;28;20237;-55
2023/08/22 08:30:27;;;;;;;9.13;6.22;;;;;;;-144.30;21.68;77342.78;5111390;28;20202;-55
2023/08/22 08:32:58;;;;;;;6.55;6.10;;;;;;;-144.30;21.73;77342.78;5110356;28;20200;-47
2023/08/22 08:35:29;;;;;;;14.13;6.68;;;;;;;-144.30;22.09;77919.97;5105257;28;20222;-47
2023/08/22 08:37:59;;;;;;;11.02;6.72;;;;;;;-144.30;22.42;78154.03;5099920;28;20194;-47
2023/08/22 08:40:37;;;;;;;7.18;6.38;;;;;;;-144.30;22.52;78207.59;5103269;28;20194;-55
2023/08/22 08:43:14;;;;;;;7.53;6.93;;;;;;;-144.30;22.72;78275.03;5110931;28;20194;-56
2023/08/22 08:46:31;;;;;;;;;;;;;;;;;;;;;
2023/08/22 08:49:20;;;;;;;14.45;6.95;;;;;;;-144.30;22.36;78152.06;5088074;28;20702;-56
2023/08/22 08:58:22;;;;;;;;;;;;;;;;;;;;;
2023/08/22 09:11:03;;;;;;;8.35;7.13;;;;;;;-144.30;23.99;79445.69;5089938;28;20223;-46
2023/08/22 09:14:18;;;;;;;15.15;8.30;;;;;;;-144.30;23.60;79290.91;5086576;28;20207;-47
2023/08/22 09:17:38;;;;;;;10.80;6.70;;;;;;;-144.30;23.57;79116.28;5086590;28;20273;-48
2023/08/22 09:20:13;;;;;;;10.68;7.10;;;;;;;-144.30;23.70;79290.91;5091817;28;20726;-45
2023/08/22 09:23:21;;;;;;;6.88;6.25;;;;;;;-144.30;23.52;79157.97;5090679;28;20313;-46
2023/08/22 09:29:23;;;;;;;6.22;5.60;;;;;;;-144.30;23.14;78679.78;5085719;28;20190;-56
2023/08/22 09:35:48;;;;;;;6.85;5.88;;;;;;;-144.30;23.68;79189.72;5089813;28;20283;-56
2023/08/22 09:41:52;;;;;;;6.85;6.28;;;;;;;-144.30;23.10;78528.97;5091547;28;20230;-46
2023/08/22 09:44:36;;;;;;;6.80;6.30;;;;;;;-144.30;23.11;78612.31;5097847;28;20190;-46
2023/08/22 09:47:20;;;;;;;6.53;5.82;;;;;;;-144.30;23.57;79128.19;5099510;28;20687;-56
2023/08/22 09:50:08;;;;;;;8.73;6.18;;;;;;;-144.30;23.31;78953.59;5099944;28;20256;-47
2023/08/22 09:52:59;;;;;;;7.30;6.50;;;;;;;-144.30;22.97;78548.81;5097564;28;20274;-46
2023/08/22 09:55:45;;;;;;;6.65;5.90;;;;;;;-144.30;22.70;78306.78;5098509;28;20194;-46
2023/08/22 09:58:17;;;;;;;7.28;6.60;;;;;;;-144.30;22.39;77854.50;5100450;28;20673;-56
2023/08/22 10:00:48;;;;;;;6.63;6.03;;;;;;;-144.30;22.26;77862.44;5109875;28;20232;-55
2023/08/22 10:03:18;;;;;;;6.15;5.75;;;;;;;-144.30;22.48;78247.28;5108183;28;20236;-56
2023/08/22 10:05:54;;;;;;;7.35;6.65;;;;;;;-144.30;22.79;78523.03;5109691;28;20214;-46
2023/08/22 10:08:29;;;;;;;6.82;6.22;;;;;;;-144.30;23.13;78604.38;5110254;28;20733;-46
2023/08/22 10:11:00;;;;;;;7.35;6.65;;;;;;;-144.30;23.03;78544.84;5109885;28;20193;-55
2023/08/22 10:13:35;;;;;;;9.07;6.32;;;;;;;-144.30;22.96;78701.59;5109716;28;20198;-47
2023/08/22 10:16:04;;;;;;;6.93;6.43;;;;;;;-144.30;23.16;78699.59;5110205;28;20197;-48
2023/08/22 10:18:34;;;;;;;8.40;7.60;;;;;;;-144.30;23.10;78945.66;5109839;28;20224;-56
2023/08/22 10:21:06;;;;;;;6.97;6.30;;;;;;;-144.30;23.67;79227.41;5109679;28;20194;-55
2023/08/22 10:24:06;;;;;;;7.47;6.88;;;;;;;-144.30;23.80;79259.16;5109504;28;20247;-56
2023/08/22 10:26:49;;;;;;;7.97;6.63;;;;;;;-144.30;24.01;79421.88;5026663;28;20224;-56
2023/08/22 10:29:20;;;;;;;7.50;6.60;;;;;;;-144.30;24.96;80033.16;5101053;28;20289;-56
2023/08/22 10:32:27;;;;;;;7.40;6.55;;;;;;;-144.30;25.54;80485.75;5107663;28;20251;-56
2023/08/22 10:35:29;;;;;;;7.45;6.88;;;;;;;-144.30;25.97;80855.00;5109632;28;20193;-55
2023/08/22 10:37:59;;;;;;;7.90;7.20;;;;;;;-144.30;26.63;80966.19;5109656;28;20267;-56
2023/08/22 10:40:39;;;;;;;10.85;7.25;;;;;;;-144.30;26.89;81095.22;5109510;28;20221;-56
2023/08/22 10:43:14;;;;;;;7.75;6.82;;;;;;;-144.30;27.26;81113.09;5109559;28;20303;-47
2023/08/22 10:45:53;;;;;;;7.43;6.90;;;;;;;-144.30;27.43;81115.09;5113137;28;20622;-55
2023/08/22 10:48:24;;;;;;;8.02;7.32;;;;;;;-144.30;27.26;81121.03;5113531;28;20194;-56
2023/08/22 10:51:08;;;;;;;10.35;8.05;;;;;;;-144.30;27.25;81085.31;5112088;28;20241;-55
2023/08/22 10:53:45;;;;;;;8.05;7.28;;;;;;;-144.30;27.52;81115.09;5113022;28;20193;-55
2023/08/22 10:56:26;;;;;;;7.20;6.60;;;;;;;-144.30;27.17;81160.75;5113339;28;20561;-55
2023/08/22 10:59:04;;;;;;;12.63;7.55;;;;;;;-144.30;27.88;81196.50;5113150;28;20744;-55
2023/08/22 11:01:35;;;;;;;9.65;7.10;;;;;;;-144.30;27.43;81184.56;5107309;28;20233;-56
2023/08/22 11:04:03;;;;;;;9.05;7.05;;;;;;;-144.30;27.69;81192.50;5096004;28;20237;-55
2023/08/22 11:06:42;;;;;;;12.30;7.18;;;;;;;-144.30;27.88;81176.63;5097099;28;20552;-55
2023/08/22 11:09:16;;;;;;;9.15;7.22;;;;;;;-144.30;27.62;81200.47;5104681;28;20260;-55
2023/08/22 11:11:47;;;;;;;10.95;6.63;;;;;;;-144.30;27.91;81236.19;5106611;28;20198;-55
2023/08/22 11:14:23;;;;;;;11.50;7.68;;;;;;;-144.30;27.94;81200.47;5107045;28;20285;-55
2023/08/22 11:16:52;;;;;;;8.43;7.20;;;;;;;-144.30;27.91;81136.91;5092407;28;20236;-56
2023/08/22 11:19:22;;;;;;;12.20;7.80;;;;;;;-144.30;27.88;81125.00;5110449;28;20212;-55
2023/08/22 11:21:54;;;;;;;8.73;6.72;;;;;;;-144.30;27.70;81113.09;5098407;28;20277;-56
2023/08/22 11:24:27;;;;;;;8.55;7.10;;;;;;;-144.30;27.68;81095.22;5112876;28;20285;-47
2023/08/22 11:26:56;;;;;;;8.30;6.95;;;;;;;-144.30;27.25;81107.13;5111395;28;20257;-55
2023/08/22 11:29:26;;;;;;;9.15;7.15;;;;;;;-144.30;27.38;81140.91;5111453;28;20275;-55
2023/08/22 11:32:00;;;;;;;7.40;7.00;;;;;;;-144.30;27.78;81198.47;5112508;28;20205;-55
2023/08/22 11:34:34;;;;;;;11.77;6.78;;;;;;;-144.30;27.98;81176.63;5106459;28;20251;-56
2023/08/22 11:37:09;;;;;;;7.60;6.90;;;;;;;-144.30;27.68;81160.75;5102950;28;20295;-55
2023/08/22 11:39:39;;;;;;;18.10;7.70;;;;;;;-144.30;27.79;81256.06;5110752;28;20196;-55
2023/08/22 11:42:16;;;;;;;12.27;7.43;;;;;;;-144.30;27.74;81267.97;5100819;28;20205;-55
2023/08/22 11:45:02;;;;;;;8.90;7.65;;;;;;;-144.30;27.96;81291.78;5097669;28;20190;-55
2023/08/22 11:47:41;;;;;;;8.55;7.72;;;;;;;-144.30;28.10;81299.72;5103318;28;20214;-55
2023/08/22 11:50:22;;;;;;;9.13;7.88;;;;;;;-144.30;27.54;81297.75;5103892;28;20199;-55
2023/08/22 11:52:58;;;;;;;8.05;7.45;;;;;;;-144.30;27.67;81279.88;5101335;28;20198;-55
2023/08/22 11:55:33;;;;;;;8.45;7.70;;;;;;;-144.30;27.83;81335.47;5099815;28;20702;-48
2023/08/22 11:58:08;;;;;;;8.88;7.47;;;;;;;-144.30;28.19;81319.59;5101727;28;20202;-46
2023/08/22 12:00:40;;;;;;;7.97;7.25;;;;;;;-144.30;28.20;81339.44;5100872;28;20279;-55
2023/08/22 12:03:14;;;;;;;9.82;7.38;;;;;;;-144.30;28.10;81291.78;5096619;28;20250;-55
2023/08/22 12:05:48;;;;;;;11.15;7.35;;;;;;;-144.30;28.00;81291.78;5100609;28;20195;-55
2023/08/22 12:08:25;;;;;;;13.13;7.57;;;;;;;-144.30;28.11;81341.44;5101125;28;20206;-47
2023/08/22 12:11:01;;;;;;;8.85;8.15;;;;;;;-144.30;28.09;81275.91;5111793;28;20673;-46
2023/08/22 12:13:37;;;;;;;11.65;7.60;;;;;;;-144.30;28.02;81287.81;5111823;28;20204;-46
2023/08/22 12:16:10;;;;;;;8.55;7.78;;;;;;;-144.30;28.17;81285.84;5111967;28;20205;-55
2023/08/22 12:18:43;;;;;;;10.60;7.80;;;;;;;-144.30;28.05;81295.75;5111500;28;20241;-55
2023/08/22 12:21:15;;;;;;;8.75;8.05;;;;;;;-144.30;28.05;81265.97;5111629;28;20629;-55
2023/08/22 12:23:45;;;;;;;10.32;7.28;;;;;;;-144.30;28.14;81271.94;5111224;28;20564;-56
2023/08/22 12:26:16;;;;;;;7.90;7.35;;;;;;;-144.30;28.08;81323.56;5111557;28;20222;-56
2023/08/22 12:28:50;;;;;;;8.20;7.70;;;;;;;-144.30;28.20;81291.78;5109988;28;20285;-55
2023/08/22 12:31:31;;;;;;;8.65;7.90;;;;;;;-144.30;28.25;81319.59;5111216;28;20574;-56
2023/08/22 12:34:01;;;;;;;9.57;7.80;;;;;;;-144.30;28.25;81293.78;5111479;28;20202;-56
2023/08/22 12:36:34;;;;;;;8.48;7.72;;;;;;;-144.30;28.25;81331.50;5111389;28;20187;-56
2023/08/22 12:39:04;;;;;;;8.68;7.95;;;;;;;-144.30;28.55;81391.06;5111266;28;20322;-54
2023/08/22 12:41:32;;;;;;;9.77;7.72;;;;;;;-144.30;28.52;81383.13;5111444;28;20247;-55
2023/08/22 12:44:02;;;;;;;10.10;8.90;;;;;;;-144.30;28.50;81397.03;5111432;28;20606;-56
2023/08/22 12:46:30;;;;;;;8.57;7.95;;;;;;;-144.30;28.83;81379.16;5110962;28;20709;-55
2023/08/22 12:49:01;;;;;;;9.52;8.38;;;;;;;-144.30;29.10;81383.13;5111471;28;20198;-56
2023/08/22 12:51:34;;;;;;;15.77;8.77;;;;;;;-144.30;29.12;81434.75;5111528;28;20198;-55
2023/08/22 12:54:05;;;;;;;8.45;7.95;;;;;;;-144.30;29.34;81480.44;5111121;28;20225;-55
2023/08/22 12:56:33;;;;;;;9.25;8.32;;;;;;;-144.30;29.50;81468.50;5109870;28;20222;-55
2023/08/22 12:59:10;;;;;;;9.90;7.80;;;;;;;-144.30;29.37;81492.34;5110821;28;20198;-56
2023/08/22 13:01:40;;;;;;;9.73;8.35;;;;;;;-144.30;29.39;81516.16;5110291;28;20259;-56
2023/08/22 13:04:23;;;;;;;10.48;7.90;;;;;;;-144.30;29.32;81516.16;5109785;28;20619;-47
2023/08/22 13:06:54;;;;;;;13.48;8.80;;;;;;;-144.30;29.54;81504.25;5106319;28;20252;-47
2023/08/22 13:09:25;;;;;;;11.38;9.85;;;;;;;-144.30;29.48;81538.00;5110935;28;20653;-46
2023/08/22 13:11:57;;;;;;;8.95;8.15;;;;;;;-144.30;29.35;81512.19;5091534;28;20203;-46
2023/08/22 13:14:33;;;;;;;10.02;7.68;;;;;;;-144.30;29.32;81530.06;5090196;28;20200;-47
2023/08/22 13:17:05;;;;;;;9.55;8.38;;;;;;;-144.30;29.55;81605.53;5089973;28;20252;-47
2023/08/22 13:19:37;;;;;;;10.15;7.22;;;;;;;-144.30;29.70;81637.31;5089069;28;20206;-47
2023/08/22 13:22:11;;;;;;;12.18;8.15;;;;;;;-144.30;29.72;81597.59;5107075;28;20243;-47
2023/08/22 13:24:40;;;;;;;9.32;7.80;;;;;;;-144.30;29.99;81603.53;5110479;28;20574;-56
2023/08/22 13:27:10;;;;;;;9.77;8.40;;;;;;;-144.30;29.95;81655.19;5110308;28;20219;-55
2023/08/22 13:29:41;;;;;;;7.93;7.15;;;;;;;-144.30;29.97;81742.53;5110040;28;20190;-54
2023/08/22 13:32:10;;;;;;;9.10;8.48;;;;;;;-144.30;30.21;81682.97;5110194;28;20202;-56
2023/08/22 13:34:40;;;;;;;11.57;7.70;;;;;;;-144.30;30.09;81688.94;5110240;28;20272;-57
2023/08/22 13:37:12;;;;;;;8.15;7.50;;;;;;;-144.30;30.28;81718.72;5109020;28;20222;-56
2023/08/22 13:39:42;;;;;;;14.00;9.27;;;;;;;-144.30;30.16;81651.19;5110034;28;20195;-55
2023/08/22 13:42:16;;;;;;;10.57;8.20;;;;;;;-144.30;29.75;81671.06;5109963;28;20202;-56
2023/08/22 13:44:49;;;;;;;7.80;7.30;;;;;;;-144.30;29.84;81681.00;5110037;28;20283;-55
2023/08/22 13:47:21;;;;;;;11.68;8.20;;;;;;;-144.30;29.60;81677.00;5109918;28;20214;-55
2023/08/22 13:49:50;;;;;;;9.73;8.80;;;;;;;-144.30;29.60;81673.03;5109712;28;20281;-56
2023/08/22 13:52:24;;;;;;;7.57;7.07;;;;;;;-144.30;29.44;81704.81;5109994;28;20198;-55